Culp Creek, OR (97427)

9:34 AM PST on December 28, 2014 (GMT -0800)
Westfir Road | Change Station
CLOSE
Current Station
Personal Weather Station
Location: Westfir, OR
Elevation: 1083 ft
Nearby Weather Stations
Active Advisory: Special Statement Active Notice: Public Information Statement

Elev 1083 ft 43.76 °N, 122.50 °W | Updated 31 minutes ago

Mostly Cloudy
Mostly Cloudy
46.4 °F
Feels Like 46 °F
N
2.3
Wind Variable Wind from SW
Gusts 2.3 mph

Today
High -- | Low -- °F
--% Chance of Precip.
Yesterday
High -- | Low -- °F
Precip. -- in
7:44 AM 4:41 PM
Waxing Crescent, 49% visible
Pressure 30.34 in
Visibility 10.0 miles
Clouds Scattered Clouds 6500 ft
Windchill 46 °F
Dew Point 46 °F
Humidity 98%
Rainfall 0.41 in
Snow Depth Not available.
UV 0 out of 12
Pollen .60 out of 12
Air Quality Not available.
Flu Activity Not available.
METAR KEUG 281654Z 22007KT 10SM SCT065 04/03 A3033 RMK AO2 SLP273 T00440033

More Conditions Fewer Conditions

Pressure 30.34 in
Visibility 10.0 miles
Clouds Scattered Clouds 6500 ft
Windchill 46 °F
Dew Point 46 °F
Humidity 98%
Rainfall 0.41 in
Snow Depth Not available.
UV 0 out of 12
Pollen .60 out of 12
Air Quality Not available.
Flu Activity Not available.
METAR KEUG 281654Z 22007KT 10SM SCT065 04/03 A3033 RMK AO2 SLP273 T00440033

More Conditions Fewer Conditions

10-Day Weather Forecast

Almanac

Astronomy

Dec. 28, 2014 Rise Set
Actual Time
Civil Twilight
Nautical Twilight
Astronomical Twilight
Moon
Length of Visible Light
Length of Day
Tomorrow will be .
, % of the Moon is Illuminated

Today's Extremes

State Highs State Lows

Community

WunderPhotos

Upload Photos

1,781,365 photos uploaded!

WunderBlogs® & News

Nearby

Air Quality

  Air Quality AQ Index Pollutant
Not available.

Snow Depth

Station Depth Elevation

Earthquake Activity

City Distance Mag. Time & Date
Minimum magnitude displayed is 2.5.

Coastal Water Temperatures

Place Temperature

Nearby Weather Stations